sensor_id;sensor_type;location;lat;lon;timestamp;P1;durP1;ratioP1;P2;durP2;ratioP2
57947;SDS011;43754;56.992;24.292;2023-02-28T00:00:43;7.25;;;4.60;;
57947;SDS011;43754;56.992;24.292;2023-02-28T00:03:16;9.27;;;3.55;;
57947;SDS011;43754;56.992;24.292;2023-02-28T00:05:48;5.15;;;2.80;;
57947;SDS011;43754;56.992;24.292;2023-02-28T00:08:20;6.53;;;2.97;;
57947;SDS011;43754;56.992;24.292;2023-02-28T00:10:52;7.05;;;2.83;;
57947;SDS011;43754;56.992;24.292;2023-02-28T00:13:24;4.05;;;2.65;;
57947;SDS011;43754;56.992;24.292;2023-02-28T00:16:00;6.78;;;2.83;;
57947;SDS011;43754;56.992;24.292;2023-02-28T00:18:34;6.55;;;3.08;;
57947;SDS011;43754;56.992;24.292;2023-02-28T00:21:07;6.40;;;2.55;;
57947;SDS011;43754;56.992;24.292;2023-02-28T00:23:39;5.25;;;2.58;;
57947;SDS011;43754;56.992;24.292;2023-02-28T00:26:11;4.90;;;2.75;;
57947;SDS011;43754;56.992;24.292;2023-02-28T00:28:47;5.68;;;3.13;;
57947;SDS011;43754;56.992;24.292;2023-02-28T00:31:20;4.25;;;2.10;;
57947;SDS011;43754;56.992;24.292;2023-02-28T00:33:53;3.58;;;2.10;;
57947;SDS011;43754;56.992;24.292;2023-02-28T00:36:25;4.97;;;2.35;;
57947;SDS011;43754;56.992;24.292;2023-02-28T00:38:57;3.88;;;2.08;;
57947;SDS011;43754;56.992;24.292;2023-02-28T00:41:31;5.97;;;3.13;;
57947;SDS011;43754;56.992;24.292;2023-02-28T00:44:04;12.77;;;5.13;;
57947;SDS011;43754;56.992;24.292;2023-02-28T00:46:36;7.95;;;4.97;;
57947;SDS011;43754;56.992;24.292;2023-02-28T00:49:09;5.35;;;3.30;;
57947;SDS011;43754;56.992;24.292;2023-02-28T00:51:41;6.22;;;2.53;;
57947;SDS011;43754;56.992;24.292;2023-02-28T00:54:13;6.43;;;2.60;;
57947;SDS011;43754;56.992;24.292;2023-02-28T00:56:45;4.82;;;2.17;;
57947;SDS011;43754;56.992;24.292;2023-02-28T00:59:17;3.03;;;2.20;;
57947;SDS011;43754;56.992;24.292;2023-02-28T01:01:49;3.70;;;2.17;;
57947;SDS011;43754;56.992;24.292;2023-02-28T01:04:23;3.40;;;1.80;;
57947;SDS011;43754;56.992;24.292;2023-02-28T01:06:55;4.22;;;2.50;;
57947;SDS011;43754;56.992;24.292;2023-02-28T01:09:27;4.20;;;2.33;;
57947;SDS011;43754;56.992;24.292;2023-02-28T01:11:59;4.88;;;2.28;;
57947;SDS011;43754;56.992;24.292;2023-02-28T01:14:31;5.22;;;2.35;;
57947;SDS011;43754;56.992;24.292;2023-02-28T01:17:03;6.47;;;2.63;;
57947;SDS011;43754;56.992;24.292;2023-02-28T01:19:37;6.63;;;3.40;;
57947;SDS011;43754;56.992;24.292;2023-02-28T01:22:09;3.33;;;2.10;;
57947;SDS011;43754;56.992;24.292;2023-02-28T01:24:41;7.80;;;2.45;;
57947;SDS011;43754;56.992;24.292;2023-02-28T01:27:16;4.38;;;2.53;;
57947;SDS011;43754;56.992;24.292;2023-02-28T01:29:48;6.05;;;2.75;;
57947;SDS011;43754;56.992;24.292;2023-02-28T01:32:21;5.63;;;2.72;;
57947;SDS011;43754;56.992;24.292;2023-02-28T01:34:55;4.75;;;3.17;;
57947;SDS011;43754;56.992;24.292;2023-02-28T01:37:27;6.53;;;3.35;;
57947;SDS011;43754;56.992;24.292;2023-02-28T01:39:59;6.47;;;2.47;;
57947;SDS011;43754;56.992;24.292;2023-02-28T01:42:31;7.50;;;2.58;;
57947;SDS011;43754;56.992;24.292;2023-02-28T01:45:06;3.50;;;2.38;;
57947;SDS011;43754;56.992;24.292;2023-02-28T01:47:51;5.18;;;2.67;;
57947;SDS011;43754;56.992;24.292;2023-02-28T01:50:28;5.25;;;2.72;;
57947;SDS011;43754;56.992;24.292;2023-02-28T01:53:06;3.92;;;2.50;;
57947;SDS011;43754;56.992;24.292;2023-02-28T01:55:42;5.75;;;2.53;;
57947;SDS011;43754;56.992;24.292;2023-02-28T01:58:18;5.25;;;3.15;;
57947;SDS011;43754;56.992;24.292;2023-02-28T02:00:51;4.90;;;2.70;;
57947;SDS011;43754;56.992;24.292;2023-02-28T02:03:23;5.55;;;2.60;;
57947;SDS011;43754;56.992;24.292;2023-02-28T02:05:57;5.18;;;2.47;;
57947;SDS011;43754;56.992;24.292;2023-02-28T02:08:29;5.53;;;2.92;;
57947;SDS011;43754;56.992;24.292;2023-02-28T02:11:01;5.80;;;2.60;;
57947;SDS011;43754;56.992;24.292;2023-02-28T02:13:36;5.47;;;2.30;;
57947;SDS011;43754;56.992;24.292;2023-02-28T02:16:23;7.47;;;2.78;;
57947;SDS011;43754;56.992;24.292;2023-02-28T02:19:11;7.03;;;2.95;;
57947;SDS011;43754;56.992;24.292;2023-02-28T02:22:01;5.15;;;2.80;;
57947;SDS011;43754;56.992;24.292;2023-02-28T02:24:59;6.68;;;2.55;;
57947;SDS011;43754;56.992;24.292;2023-02-28T02:28:03;9.98;;;3.35;;
57947;SDS011;43754;56.992;24.292;2023-02-28T02:31:05;6.55;;;3.17;;
57947;SDS011;43754;56.992;24.292;2023-02-28T02:37:13;9.53;;;3.27;;
57947;SDS011;43754;56.992;24.292;2023-02-28T02:39:53;3.95;;;2.78;;
57947;SDS011;43754;56.992;24.292;2023-02-28T02:42:34;6.47;;;3.03;;
57947;SDS011;43754;56.992;24.292;2023-02-28T02:45:15;7.05;;;3.22;;
57947;SDS011;43754;56.992;24.292;2023-02-28T02:47:53;9.20;;;3.97;;
57947;SDS011;43754;56.992;24.292;2023-02-28T02:50:29;5.97;;;3.08;;
57947;SDS011;43754;56.992;24.292;2023-02-28T02:53:08;6.72;;;3.10;;
57947;SDS011;43754;56.992;24.292;2023-02-28T02:55:43;6.70;;;3.35;;
57947;SDS011;43754;56.992;24.292;2023-02-28T02:58:20;6.95;;;3.03;;
57947;SDS011;43754;56.992;24.292;2023-02-28T03:00:57;9.60;;;3.20;;
57947;SDS011;43754;56.992;24.292;2023-02-28T03:03:35;6.95;;;3.00;;
57947;SDS011;43754;56.992;24.292;2023-02-28T03:06:07;10.05;;;3.50;;
57947;SDS011;43754;56.992;24.292;2023-02-28T03:08:41;7.18;;;3.22;;
57947;SDS011;43754;56.992;24.292;2023-02-28T03:11:13;4.35;;;2.80;;
57947;SDS011;43754;56.992;24.292;2023-02-28T03:16:56;7.40;;;2.92;;
57947;SDS011;43754;56.992;24.292;2023-02-28T03:19:47;3.95;;;2.85;;
57947;SDS011;43754;56.992;24.292;2023-02-28T03:22:36;6.60;;;3.15;;
57947;SDS011;43754;56.992;24.292;2023-02-28T03:25:25;9.43;;;3.47;;
57947;SDS011;43754;56.992;24.292;2023-02-28T03:28:05;7.85;;;3.45;;
57947;SDS011;43754;56.992;24.292;2023-02-28T03:30:45;3.63;;;2.33;;
57947;SDS011;43754;56.992;24.292;2023-02-28T03:33:26;9.63;;;3.25;;
57947;SDS011;43754;56.992;24.292;2023-02-28T03:36:02;5.43;;;2.60;;
57947;SDS011;43754;56.992;24.292;2023-02-28T03:38:39;8.82;;;3.80;;
57947;SDS011;43754;56.992;24.292;2023-02-28T03:41:19;10.45;;;3.78;;
57947;SDS011;43754;56.992;24.292;2023-02-28T03:43:54;6.57;;;3.13;;
57947;SDS011;43754;56.992;24.292;2023-02-28T03:46:30;8.48;;;3.03;;
57947;SDS011;43754;56.992;24.292;2023-02-28T03:49:06;6.15;;;3.42;;
57947;SDS011;43754;56.992;24.292;2023-02-28T03:51:44;4.40;;;2.70;;
57947;SDS011;43754;56.992;24.292;2023-02-28T03:54:19;7.97;;;3.03;;
57947;SDS011;43754;56.992;24.292;2023-02-28T03:56:59;8.65;;;4.57;;
57947;SDS011;43754;56.992;24.292;2023-02-28T03:59:35;9.45;;;4.35;;
57947;SDS011;43754;56.992;24.292;2023-02-28T04:02:11;9.63;;;3.53;;
57947;SDS011;43754;56.992;24.292;2023-02-28T04:04:43;7.57;;;3.28;;
57947;SDS011;43754;56.992;24.292;2023-02-28T04:07:16;4.05;;;2.38;;
57947;SDS011;43754;56.992;24.292;2023-02-28T04:09:49;8.27;;;3.40;;
57947;SDS011;43754;56.992;24.292;2023-02-28T04:12:22;7.90;;;3.13;;
57947;SDS011;43754;56.992;24.292;2023-02-28T04:14:54;19.65;;;10.32;;
57947;SDS011;43754;56.992;24.292;2023-02-28T04:17:26;6.10;;;4.00;;
57947;SDS011;43754;56.992;24.292;2023-02-28T04:19:58;5.95;;;3.50;;
57947;SDS011;43754;56.992;24.292;2023-02-28T04:22:30;4.28;;;2.53;;
57947;SDS011;43754;56.992;24.292;2023-02-28T04:25:03;4.82;;;2.45;;
57947;SDS011;43754;56.992;24.292;2023-02-28T04:27:38;5.90;;;2.80;;
57947;SDS011;43754;56.992;24.292;2023-02-28T04:30:10;7.68;;;3.35;;
57947;SDS011;43754;56.992;24.292;2023-02-28T04:32:43;8.00;;;3.58;;
57947;SDS011;43754;56.992;24.292;2023-02-28T04:35:15;14.98;;;4.40;;
57947;SDS011;43754;56.992;24.292;2023-02-28T04:37:48;12.38;;;4.53;;
57947;SDS011;43754;56.992;24.292;2023-02-28T04:40:19;14.07;;;5.20;;
57947;SDS011;43754;56.992;24.292;2023-02-28T04:42:53;13.45;;;4.28;;
57947;SDS011;43754;56.992;24.292;2023-02-28T04:45:25;10.63;;;5.07;;
57947;SDS011;43754;56.992;24.292;2023-02-28T04:47:57;6.70;;;3.13;;
57947;SDS011;43754;56.992;24.292;2023-02-28T04:50:29;5.75;;;3.40;;
57947;SDS011;43754;56.992;24.292;2023-02-28T04:53:01;7.43;;;2.50;;
57947;SDS011;43754;56.992;24.292;2023-02-28T04:55:33;4.38;;;2.53;;
57947;SDS011;43754;56.992;24.292;2023-02-28T04:58:06;4.57;;;2.35;;
57947;SDS011;43754;56.992;24.292;2023-02-28T05:00:40;9.02;;;3.80;;
57947;SDS011;43754;56.992;24.292;2023-02-28T05:03:12;6.53;;;3.67;;
57947;SDS011;43754;56.992;24.292;2023-02-28T05:05:44;8.35;;;3.75;;
57947;SDS011;43754;56.992;24.292;2023-02-28T05:08:16;4.60;;;2.92;;
57947;SDS011;43754;56.992;24.292;2023-02-28T05:10:48;9.68;;;3.67;;
57947;SDS011;43754;56.992;24.292;2023-02-28T05:13:21;9.93;;;4.25;;
57947;SDS011;43754;56.992;24.292;2023-02-28T05:15:54;9.68;;;5.35;;
57947;SDS011;43754;56.992;24.292;2023-02-28T05:18:26;9.32;;;4.45;;
57947;SDS011;43754;56.992;24.292;2023-02-28T05:20:59;4.82;;;3.17;;
57947;SDS011;43754;56.992;24.292;2023-02-28T05:23:33;8.65;;;4.45;;
57947;SDS011;43754;56.992;24.292;2023-02-28T05:26:05;6.28;;;3.13;;
57947;SDS011;43754;56.992;24.292;2023-02-28T05:28:39;7.55;;;4.25;;
57947;SDS011;43754;56.992;24.292;2023-02-28T05:31:11;6.95;;;2.90;;
57947;SDS011;43754;56.992;24.292;2023-02-28T05:33:43;8.10;;;3.10;;
57947;SDS011;43754;56.992;24.292;2023-02-28T05:36:15;4.40;;;2.55;;
57947;SDS011;43754;56.992;24.292;2023-02-28T05:38:47;4.97;;;2.95;;
57947;SDS011;43754;56.992;24.292;2023-02-28T05:41:19;4.03;;;2.83;;
57947;SDS011;43754;56.992;24.292;2023-02-28T05:43:53;7.32;;;2.95;;
57947;SDS011;43754;56.992;24.292;2023-02-28T05:46:25;4.13;;;3.10;;
57947;SDS011;43754;56.992;24.292;2023-02-28T05:48:57;5.10;;;2.60;;
57947;SDS011;43754;56.992;24.292;2023-02-28T05:51:31;6.10;;;2.80;;
57947;SDS011;43754;56.992;24.292;2023-02-28T05:54:03;7.43;;;3.85;;
57947;SDS011;43754;56.992;24.292;2023-02-28T05:56:36;6.32;;;3.03;;
57947;SDS011;43754;56.992;24.292;2023-02-28T05:59:11;4.80;;;3.08;;
57947;SDS011;43754;56.992;24.292;2023-02-28T06:01:44;8.40;;;3.40;;
57947;SDS011;43754;56.992;24.292;2023-02-28T06:04:20;8.35;;;3.50;;
57947;SDS011;43754;56.992;24.292;2023-02-28T06:07:02;8.23;;;5.07;;
57947;SDS011;43754;56.992;24.292;2023-02-28T06:09:34;7.00;;;4.18;;
57947;SDS011;43754;56.992;24.292;2023-02-28T06:12:07;13.13;;;7.47;;
57947;SDS011;43754;56.992;24.292;2023-02-28T06:14:42;13.30;;;5.93;;
57947;SDS011;43754;56.992;24.292;2023-02-28T06:17:15;9.43;;;5.15;;
57947;SDS011;43754;56.992;24.292;2023-02-28T06:19:47;9.27;;;5.53;;
57947;SDS011;43754;56.992;24.292;2023-02-28T06:22:19;10.55;;;8.20;;
57947;SDS011;43754;56.992;24.292;2023-02-28T06:24:51;14.95;;;7.10;;
57947;SDS011;43754;56.992;24.292;2023-02-28T06:27:24;11.82;;;6.82;;
57947;SDS011;43754;56.992;24.292;2023-02-28T06:29:57;16.50;;;6.55;;
57947;SDS011;43754;56.992;24.292;2023-02-28T06:32:29;14.38;;;6.47;;
57947;SDS011;43754;56.992;24.292;2023-02-28T06:35:02;8.27;;;6.78;;
57947;SDS011;43754;56.992;24.292;2023-02-28T06:37:34;15.65;;;10.80;;
57947;SDS011;43754;56.992;24.292;2023-02-28T06:40:06;17.60;;;9.90;;
57947;SDS011;43754;56.992;24.292;2023-02-28T06:42:40;37.53;;;18.58;;
57947;SDS011;43754;56.992;24.292;2023-02-28T06:45:13;23.85;;;13.40;;
57947;SDS011;43754;56.992;24.292;2023-02-28T06:47:45;36.05;;;22.25;;
57947;SDS011;43754;56.992;24.292;2023-02-28T06:50:22;17.30;;;7.00;;
57947;SDS011;43754;56.992;24.292;2023-02-28T06:52:54;17.65;;;7.28;;
57947;SDS011;43754;56.992;24.292;2023-02-28T06:55:27;15.40;;;7.40;;
57947;SDS011;43754;56.992;24.292;2023-02-28T06:58:01;12.85;;;5.95;;
57947;SDS011;43754;56.992;24.292;2023-02-28T07:00:34;15.48;;;8.27;;
57947;SDS011;43754;56.992;24.292;2023-02-28T07:03:06;7.38;;;5.47;;
57947;SDS011;43754;56.992;24.292;2023-02-28T07:05:38;9.77;;;5.70;;
57947;SDS011;43754;56.992;24.292;2023-02-28T07:08:11;10.00;;;6.97;;
57947;SDS011;43754;56.992;24.292;2023-02-28T07:10:43;11.23;;;6.07;;
57947;SDS011;43754;56.992;24.292;2023-02-28T07:13:15;9.13;;;4.32;;
57947;SDS011;43754;56.992;24.292;2023-02-28T07:15:54;9.48;;;4.75;;
57947;SDS011;43754;56.992;24.292;2023-02-28T07:18:26;10.00;;;6.00;;
57947;SDS011;43754;56.992;24.292;2023-02-28T07:21:01;10.85;;;4.90;;
57947;SDS011;43754;56.992;24.292;2023-02-28T07:23:34;8.20;;;4.63;;
57947;SDS011;43754;56.992;24.292;2023-02-28T07:26:06;8.55;;;4.40;;
57947;SDS011;43754;56.992;24.292;2023-02-28T07:28:42;5.70;;;3.70;;
57947;SDS011;43754;56.992;24.292;2023-02-28T07:31:17;9.00;;;4.13;;
57947;SDS011;43754;56.992;24.292;2023-02-28T07:33:50;9.05;;;4.75;;
57947;SDS011;43754;56.992;24.292;2023-02-28T07:36:22;10.35;;;4.72;;
57947;SDS011;43754;56.992;24.292;2023-02-28T07:38:54;9.45;;;4.03;;
57947;SDS011;43754;56.992;24.292;2023-02-28T07:41:26;7.57;;;3.67;;
57947;SDS011;43754;56.992;24.292;2023-02-28T07:43:59;9.77;;;5.82;;
57947;SDS011;43754;56.992;24.292;2023-02-28T07:46:33;7.90;;;3.42;;
57947;SDS011;43754;56.992;24.292;2023-02-28T07:49:07;9.23;;;4.65;;
57947;SDS011;43754;56.992;24.292;2023-02-28T07:51:39;9.18;;;5.43;;
57947;SDS011;43754;56.992;24.292;2023-02-28T07:54:11;11.75;;;5.45;;
57947;SDS011;43754;56.992;24.292;2023-02-28T07:56:43;9.52;;;5.20;;
57947;SDS011;43754;56.992;24.292;2023-02-28T07:59:15;5.95;;;4.10;;
57947;SDS011;43754;56.992;24.292;2023-02-28T08:01:48;7.80;;;4.15;;
57947;SDS011;43754;56.992;24.292;2023-02-28T08:04:21;5.70;;;2.90;;
57947;SDS011;43754;56.992;24.292;2023-02-28T08:06:53;5.57;;;3.08;;
57947;SDS011;43754;56.992;24.292;2023-02-28T08:09:27;7.38;;;5.18;;
57947;SDS011;43754;56.992;24.292;2023-02-28T08:12:01;7.00;;;5.75;;
57947;SDS011;43754;56.992;24.292;2023-02-28T08:14:33;6.40;;;4.40;;
57947;SDS011;43754;56.992;24.292;2023-02-28T08:17:06;5.10;;;2.55;;
57947;SDS011;43754;56.992;24.292;2023-02-28T08:19:38;7.28;;;3.15;;
57947;SDS011;43754;56.992;24.292;2023-02-28T08:22:10;4.32;;;2.47;;
57947;SDS011;43754;56.992;24.292;2023-02-28T08:24:42;7.80;;;5.22;;
57947;SDS011;43754;56.992;24.292;2023-02-28T08:27:15;5.95;;;3.95;;
57947;SDS011;43754;56.992;24.292;2023-02-28T08:29:47;5.20;;;2.53;;
57947;SDS011;43754;56.992;24.292;2023-02-28T08:32:20;5.20;;;2.00;;
57947;SDS011;43754;56.992;24.292;2023-02-28T08:35:01;4.10;;;1.75;;
57947;SDS011;43754;56.992;24.292;2023-02-28T08:37:34;4.38;;;1.92;;
57947;SDS011;43754;56.992;24.292;2023-02-28T08:40:07;4.70;;;2.47;;
57947;SDS011;43754;56.992;24.292;2023-02-28T08:42:40;2.55;;;1.80;;
57947;SDS011;43754;56.992;24.292;2023-02-28T08:45:12;4.18;;;2.97;;
57947;SDS011;43754;56.992;24.292;2023-02-28T08:47:45;4.93;;;3.10;;
57947;SDS011;43754;56.992;24.292;2023-02-28T08:50:17;11.05;;;9.23;;
57947;SDS011;43754;56.992;24.292;2023-02-28T08:52:50;14.05;;;9.88;;
57947;SDS011;43754;56.992;24.292;2023-02-28T08:55:22;6.85;;;2.63;;
57947;SDS011;43754;56.992;24.292;2023-02-28T08:57:54;11.50;;;4.55;;
57947;SDS011;43754;56.992;24.292;2023-02-28T09:00:26;4.57;;;2.85;;
57947;SDS011;43754;56.992;24.292;2023-02-28T09:02:59;3.00;;;2.00;;
57947;SDS011;43754;56.992;24.292;2023-02-28T09:05:31;5.82;;;3.30;;
57947;SDS011;43754;56.992;24.292;2023-02-28T09:08:04;5.07;;;2.97;;
57947;SDS011;43754;56.992;24.292;2023-02-28T09:10:36;7.22;;;2.35;;
57947;SDS011;43754;56.992;24.292;2023-02-28T09:13:08;7.43;;;2.55;;
57947;SDS011;43754;56.992;24.292;2023-02-28T09:15:40;4.30;;;3.00;;
57947;SDS011;43754;56.992;24.292;2023-02-28T09:18:13;10.32;;;4.95;;
57947;SDS011;43754;56.992;24.292;2023-02-28T09:20:46;2.97;;;1.77;;
57947;SDS011;43754;56.992;24.292;2023-02-28T09:23:18;4.78;;;2.45;;
57947;SDS011;43754;56.992;24.292;2023-02-28T09:25:52;2.80;;;1.48;;
57947;SDS011;43754;56.992;24.292;2023-02-28T09:28:25;2.13;;;1.45;;
57947;SDS011;43754;56.992;24.292;2023-02-28T09:30:57;4.07;;;2.22;;
57947;SDS011;43754;56.992;24.292;2023-02-28T09:33:32;2.45;;;1.58;;
57947;SDS011;43754;56.992;24.292;2023-02-28T09:36:06;4.28;;;2.08;;
57947;SDS011;43754;56.992;24.292;2023-02-28T09:38:38;4.00;;;1.70;;
57947;SDS011;43754;56.992;24.292;2023-02-28T09:41:11;4.32;;;2.20;;
57947;SDS011;43754;56.992;24.292;2023-02-28T09:43:47;6.18;;;2.28;;
57947;SDS011;43754;56.992;24.292;2023-02-28T09:46:27;5.25;;;2.92;;
57947;SDS011;43754;56.992;24.292;2023-02-28T09:49:05;2.65;;;1.45;;
57947;SDS011;43754;56.992;24.292;2023-02-28T09:51:47;5.82;;;2.08;;
57947;SDS011;43754;56.992;24.292;2023-02-28T09:54:24;2.70;;;1.75;;
57947;SDS011;43754;56.992;24.292;2023-02-28T09:56:59;4.40;;;2.10;;
57947;SDS011;43754;56.992;24.292;2023-02-28T09:59:42;4.70;;;1.73;;
57947;SDS011;43754;56.992;24.292;2023-02-28T10:02:38;2.75;;;1.25;;
57947;SDS011;43754;56.992;24.292;2023-02-28T10:05:32;2.67;;;1.48;;
57947;SDS011;43754;56.992;24.292;2023-02-28T10:08:10;1.80;;;1.05;;
57947;SDS011;43754;56.992;24.292;2023-02-28T10:10:46;3.92;;;1.63;;
57947;SDS011;43754;56.992;24.292;2023-02-28T10:13:25;6.10;;;2.88;;
57947;SDS011;43754;56.992;24.292;2023-02-28T10:16:05;6.40;;;4.43;;
57947;SDS011;43754;56.992;24.292;2023-02-28T10:18:41;12.65;;;7.53;;
57947;SDS011;43754;56.992;24.292;2023-02-28T10:21:19;10.88;;;9.07;;
57947;SDS011;43754;56.992;24.292;2023-02-28T10:23:57;14.35;;;8.70;;
57947;SDS011;43754;56.992;24.292;2023-02-28T10:26:35;7.75;;;6.82;;
57947;SDS011;43754;56.992;24.292;2023-02-28T10:29:08;14.10;;;9.02;;
57947;SDS011;43754;56.992;24.292;2023-02-28T10:31:41;12.40;;;9.30;;
57947;SDS011;43754;56.992;24.292;2023-02-28T10:34:14;15.48;;;10.02;;
57947;SDS011;43754;56.992;24.292;2023-02-28T10:36:47;12.90;;;9.95;;
57947;SDS011;43754;56.992;24.292;2023-02-28T10:39:33;14.27;;;11.13;;
57947;SDS011;43754;56.992;24.292;2023-02-28T10:45:10;5.28;;;4.22;;
57947;SDS011;43754;56.992;24.292;2023-02-28T10:47:51;6.10;;;4.18;;
57947;SDS011;43754;56.992;24.292;2023-02-28T10:50:27;4.72;;;3.58;;
57947;SDS011;43754;56.992;24.292;2023-02-28T10:53:22;5.80;;;3.83;;
57947;SDS011;43754;56.992;24.292;2023-02-28T10:56:14;13.07;;;9.55;;
57947;SDS011;43754;56.992;24.292;2023-02-28T10:58:49;17.90;;;11.55;;
57947;SDS011;43754;56.992;24.292;2023-02-28T11:01:34;18.02;;;13.73;;
57947;SDS011;43754;56.992;24.292;2023-02-28T11:04:17;20.55;;;12.82;;
57947;SDS011;43754;56.992;24.292;2023-02-28T11:06:56;16.88;;;12.13;;
57947;SDS011;43754;56.992;24.292;2023-02-28T11:09:32;8.50;;;7.30;;
57947;SDS011;43754;56.992;24.292;2023-02-28T11:12:19;11.68;;;9.25;;
57947;SDS011;43754;56.992;24.292;2023-02-28T11:14:53;13.70;;;9.32;;
57947;SDS011;43754;56.992;24.292;2023-02-28T11:17:28;11.95;;;9.25;;
57947;SDS011;43754;56.992;24.292;2023-02-28T11:20:04;9.68;;;7.95;;
57947;SDS011;43754;56.992;24.292;2023-02-28T11:22:39;12.00;;;8.85;;
57947;SDS011;43754;56.992;24.292;2023-02-28T11:25:19;10.05;;;7.22;;
57947;SDS011;43754;56.992;24.292;2023-02-28T11:27:54;14.90;;;7.03;;
57947;SDS011;43754;56.992;24.292;2023-02-28T11:30:29;13.43;;;8.52;;
57947;SDS011;43754;56.992;24.292;2023-02-28T11:33:19;15.15;;;9.35;;
57947;SDS011;43754;56.992;24.292;2023-02-28T11:35:55;11.38;;;9.13;;
57947;SDS011;43754;56.992;24.292;2023-02-28T11:38:30;16.63;;;10.85;;
57947;SDS011;43754;56.992;24.292;2023-02-28T11:41:12;13.55;;;9.43;;
57947;SDS011;43754;56.992;24.292;2023-02-28T11:44:09;14.50;;;8.00;;
57947;SDS011;43754;56.992;24.292;2023-02-28T11:46:59;11.63;;;8.50;;
57947;SDS011;43754;56.992;24.292;2023-02-28T11:49:37;8.85;;;7.55;;
57947;SDS011;43754;56.992;24.292;2023-02-28T11:52:20;12.40;;;8.80;;
57947;SDS011;43754;56.992;24.292;2023-02-28T11:55:03;13.65;;;8.32;;
57947;SDS011;43754;56.992;24.292;2023-02-28T11:57:52;9.57;;;7.50;;
57947;SDS011;43754;56.992;24.292;2023-02-28T12:00:45;8.35;;;7.45;;
57947;SDS011;43754;56.992;24.292;2023-02-28T12:06:14;10.23;;;7.68;;
57947;SDS011;43754;56.992;24.292;2023-02-28T12:08:58;9.27;;;7.72;;
57947;SDS011;43754;56.992;24.292;2023-02-28T12:11:47;11.52;;;7.20;;
57947;SDS011;43754;56.992;24.292;2023-02-28T12:17:25;8.00;;;5.38;;
57947;SDS011;43754;56.992;24.292;2023-02-28T12:20:09;5.97;;;3.67;;
57947;SDS011;43754;56.992;24.292;2023-02-28T12:22:50;4.28;;;3.22;;
57947;SDS011;43754;56.992;24.292;2023-02-28T12:25:43;5.75;;;3.78;;
57947;SDS011;43754;56.992;24.292;2023-02-28T12:28:26;5.93;;;2.88;;
57947;SDS011;43754;56.992;24.292;2023-02-28T12:31:03;6.70;;;2.88;;
57947;SDS011;43754;56.992;24.292;2023-02-28T12:33:42;6.35;;;3.80;;
57947;SDS011;43754;56.992;24.292;2023-02-28T12:36:18;8.73;;;4.90;;
57947;SDS011;43754;56.992;24.292;2023-02-28T12:38:53;8.75;;;5.30;;
57947;SDS011;43754;56.992;24.292;2023-02-28T12:41:33;19.48;;;7.93;;
57947;SDS011;43754;56.992;24.292;2023-02-28T12:44:11;18.08;;;9.60;;
57947;SDS011;43754;56.992;24.292;2023-02-28T12:46:49;13.43;;;7.68;;
57947;SDS011;43754;56.992;24.292;2023-02-28T12:49:25;5.47;;;3.95;;
57947;SDS011;43754;56.992;24.292;2023-02-28T12:52:03;6.38;;;4.40;;
57947;SDS011;43754;56.992;24.292;2023-02-28T12:54:38;5.53;;;3.72;;
57947;SDS011;43754;56.992;24.292;2023-02-28T12:57:17;6.13;;;3.80;;
57947;SDS011;43754;56.992;24.292;2023-02-28T12:59:55;8.85;;;3.67;;
57947;SDS011;43754;56.992;24.292;2023-02-28T13:02:41;6.13;;;3.42;;
57947;SDS011;43754;56.992;24.292;2023-02-28T13:08:53;7.40;;;4.32;;
57947;SDS011;43754;56.992;24.292;2023-02-28T13:11:33;10.18;;;4.88;;
57947;SDS011;43754;56.992;24.292;2023-02-28T13:14:22;12.13;;;5.93;;
57947;SDS011;43754;56.992;24.292;2023-02-28T13:16:58;8.00;;;3.85;;
57947;SDS011;43754;56.992;24.292;2023-02-28T13:19:33;8.68;;;4.32;;
57947;SDS011;43754;56.992;24.292;2023-02-28T13:22:18;5.40;;;2.90;;
57947;SDS011;43754;56.992;24.292;2023-02-28T13:24:52;4.55;;;3.33;;
57947;SDS011;43754;56.992;24.292;2023-02-28T13:33:22;4.85;;;2.60;;
57947;SDS011;43754;56.992;24.292;2023-02-28T13:36:10;4.30;;;2.20;;
57947;SDS011;43754;56.992;24.292;2023-02-28T13:38:58;2.50;;;2.20;;
57947;SDS011;43754;56.992;24.292;2023-02-28T13:44:22;6.75;;;4.28;;
57947;SDS011;43754;56.992;24.292;2023-02-28T13:49:53;5.72;;;2.78;;
57947;SDS011;43754;56.992;24.292;2023-02-28T13:52:25;11.07;;;5.57;;
57947;SDS011;43754;56.992;24.292;2023-02-28T13:55:01;10.32;;;5.95;;
57947;SDS011;43754;56.992;24.292;2023-02-28T13:57:57;9.20;;;4.93;;
57947;SDS011;43754;56.992;24.292;2023-02-28T14:00:43;7.35;;;4.07;;
57947;SDS011;43754;56.992;24.292;2023-02-28T14:03:37;11.57;;;5.53;;
57947;SDS011;43754;56.992;24.292;2023-02-28T14:06:22;11.20;;;5.70;;
57947;SDS011;43754;56.992;24.292;2023-02-28T14:08:59;10.68;;;4.70;;
57947;SDS011;43754;56.992;24.292;2023-02-28T14:11:36;16.75;;;6.90;;
57947;SDS011;43754;56.992;24.292;2023-02-28T14:14:52;18.38;;;8.48;;
57947;SDS011;43754;56.992;24.292;2023-02-28T14:17:20;8.35;;;3.92;;
57947;SDS011;43754;56.992;24.292;2023-02-28T14:19:52;9.85;;;3.95;;
57947;SDS011;43754;56.992;24.292;2023-02-28T14:25:22;9.77;;;4.80;;
57947;SDS011;43754;56.992;24.292;2023-02-28T14:28:06;10.13;;;4.90;;
57947;SDS011;43754;56.992;24.292;2023-02-28T14:30:51;7.80;;;3.75;;
57947;SDS011;43754;56.992;24.292;2023-02-28T14:33:35;7.07;;;2.88;;
57947;SDS011;43754;56.992;24.292;2023-02-28T14:36:16;4.78;;;2.03;;
57947;SDS011;43754;56.992;24.292;2023-02-28T14:38:53;10.10;;;4.18;;
57947;SDS011;43754;56.992;24.292;2023-02-28T14:41:29;3.88;;;2.20;;
57947;SDS011;43754;56.992;24.292;2023-02-28T14:44:12;8.25;;;2.97;;
57947;SDS011;43754;56.992;24.292;2023-02-28T14:46:46;3.72;;;2.75;;
57947;SDS011;43754;56.992;24.292;2023-02-28T14:49:21;7.60;;;2.40;;
57947;SDS011;43754;56.992;24.292;2023-02-28T14:52:05;6.63;;;4.00;;
57947;SDS011;43754;56.992;24.292;2023-02-28T14:54:44;3.47;;;2.40;;
57947;SDS011;43754;56.992;24.292;2023-02-28T14:57:21;6.25;;;2.90;;
57947;SDS011;43754;56.992;24.292;2023-02-28T15:00:03;8.20;;;3.83;;
57947;SDS011;43754;56.992;24.292;2023-02-28T15:02:42;6.25;;;3.67;;
57947;SDS011;43754;56.992;24.292;2023-02-28T15:05:28;10.45;;;7.53;;
57947;SDS011;43754;56.992;24.292;2023-02-28T15:08:03;12.82;;;8.85;;
57947;SDS011;43754;56.992;24.292;2023-02-28T15:10:37;19.23;;;11.73;;
57947;SDS011;43754;56.992;24.292;2023-02-28T15:13:12;21.13;;;11.98;;
57947;SDS011;43754;56.992;24.292;2023-02-28T15:15:49;18.05;;;8.70;;
57947;SDS011;43754;56.992;24.292;2023-02-28T15:18:36;12.35;;;7.35;;
57947;SDS011;43754;56.992;24.292;2023-02-28T15:21:15;23.88;;;13.27;;
57947;SDS011;43754;56.992;24.292;2023-02-28T15:23:50;11.32;;;6.22;;
57947;SDS011;43754;56.992;24.292;2023-02-28T15:26:26;35.67;;;17.38;;
57947;SDS011;43754;56.992;24.292;2023-02-28T15:29:04;17.10;;;8.27;;
57947;SDS011;43754;56.992;24.292;2023-02-28T15:31:43;8.85;;;4.32;;
57947;SDS011;43754;56.992;24.292;2023-02-28T15:34:28;12.48;;;5.57;;
57947;SDS011;43754;56.992;24.292;2023-02-28T15:37:32;8.38;;;2.88;;
57947;SDS011;43754;56.992;24.292;2023-02-28T15:40:11;10.10;;;6.20;;
57947;SDS011;43754;56.992;24.292;2023-02-28T15:42:57;7.50;;;3.70;;
57947;SDS011;43754;56.992;24.292;2023-02-28T15:45:35;2.92;;;1.10;;
57947;SDS011;43754;56.992;24.292;2023-02-28T15:48:18;2.63;;;1.10;;
57947;SDS011;43754;56.992;24.292;2023-02-28T15:50:53;4.47;;;2.13;;
57947;SDS011;43754;56.992;24.292;2023-02-28T15:53:28;10.13;;;3.13;;
57947;SDS011;43754;56.992;24.292;2023-02-28T15:56:04;5.22;;;2.42;;
57947;SDS011;43754;56.992;24.292;2023-02-28T15:58:39;55.33;;;20.77;;